createdAt,value
2018-03-03T00:01:11.290Z,53.67
2018-03-03T00:03:38.770Z,56.07
2018-03-03T00:06:07.043Z,57.60
2018-03-03T00:08:34.535Z,62.07
2018-03-03T00:11:02.024Z,56.40
2018-03-03T00:13:29.520Z,57.50
2018-03-03T00:15:57.771Z,60.53
2018-03-03T00:18:25.243Z,53.93
2018-03-03T00:20:52.741Z,55.30
2018-03-03T00:23:20.207Z,46.50
2018-03-03T00:25:47.693Z,48.00
2018-03-03T00:28:15.187Z,50.07
2018-03-03T00:30:43.441Z,56.03
2018-03-03T00:33:10.935Z,54.30
2018-03-03T00:35:38.424Z,54.23
2018-03-03T00:38:05.915Z,50.77
2018-03-03T00:40:33.388Z,43.60
2018-03-03T00:43:01.696Z,49.17
2018-03-03T00:45:29.184Z,58.73
2018-03-03T00:47:56.668Z,54.63
2018-03-03T00:50:24.898Z,54.87
2018-03-03T00:52:52.380Z,51.10
2018-03-03T00:55:19.889Z,52.93
2018-03-03T00:57:47.376Z,43.33
2018-03-03T01:00:14.891Z,51.83
2018-03-03T01:02:42.378Z,50.67
2018-03-03T01:05:09.884Z,51.67
2018-03-03T01:07:38.122Z,51.83
2018-03-03T01:10:05.617Z,45.70
2018-03-03T01:12:33.878Z,48.40
2018-03-03T01:15:02.156Z,48.23
2018-03-03T01:17:30.405Z,53.93
2018-03-03T01:19:57.892Z,53.50
2018-03-03T01:22:26.150Z,54.43
2018-03-03T01:24:53.691Z,43.67
2018-03-03T01:27:21.177Z,58.13
2018-03-03T01:29:49.454Z,50.00
2018-03-03T01:32:17.688Z,57.13
2018-03-03T01:34:45.195Z,45.70
2018-03-03T01:37:12.698Z,51.53
2018-03-03T01:39:40.186Z,54.00
2018-03-03T01:42:07.673Z,56.43
2018-03-03T01:44:35.191Z,52.50
2018-03-03T01:47:02.691Z,52.90
2018-03-03T01:49:30.167Z,51.90
2018-03-03T01:51:57.666Z,53.50
2018-03-03T01:54:25.143Z,46.23
2018-03-03T01:56:52.638Z,57.60
2018-03-03T01:59:20.133Z,53.17
2018-03-03T02:01:47.662Z,51.73
2018-03-03T02:04:15.155Z,53.93
2018-03-03T02:06:42.654Z,53.50
2018-03-03T02:09:10.133Z,54.80
2018-03-03T02:11:37.645Z,57.63
2018-03-03T02:14:05.168Z,54.17
2018-03-03T02:16:32.682Z,56.13
2018-03-03T02:19:00.169Z,59.83
2018-03-03T02:21:27.689Z,59.33
2018-03-03T02:23:55.166Z,55.30
2018-03-03T02:26:22.639Z,53.17
2018-03-03T02:28:50.136Z,55.03
2018-03-03T02:31:18.706Z,52.33
2018-03-03T02:33:46.956Z,53.73
2018-03-03T02:36:15.952Z,55.90
2018-03-03T02:38:43.451Z,51.73
2018-03-03T02:41:10.940Z,47.23
2018-03-03T02:43:38.433Z,52.67
2018-03-03T02:46:05.937Z,60.90
2018-03-03T02:48:33.436Z,50.53
2018-03-03T02:51:00.903Z,56.07
2018-03-03T02:53:28.395Z,55.53
2018-03-03T02:55:55.880Z,53.13
2018-03-03T02:58:23.375Z,53.30
2018-03-03T03:00:51.625Z,52.50
2018-03-03T03:03:19.145Z,55.67
2018-03-03T03:05:46.641Z,54.23
2018-03-03T03:08:14.127Z,52.27
2018-03-03T03:10:42.367Z,55.93
2018-03-03T03:13:09.852Z,52.77
2018-03-03T03:15:38.108Z,51.07
2018-03-03T03:18:05.582Z,53.43
2018-03-03T03:20:33.839Z,54.30
2018-03-03T03:23:01.319Z,45.40
2018-03-03T03:25:29.603Z,52.60
2018-03-03T03:27:57.091Z,50.10
2018-03-03T03:30:24.592Z,51.23
2018-03-03T03:32:52.075Z,51.50
2018-03-03T03:35:19.568Z,50.80
2018-03-03T03:37:47.058Z,46.10
2018-03-03T03:40:14.525Z,46.47
2018-03-03T03:42:42.784Z,52.50
2018-03-03T03:45:10.262Z,49.60
2018-03-03T03:47:38.497Z,53.87
2018-03-03T03:50:05.992Z,51.50
2018-03-03T03:52:34.255Z,50.17
2018-03-03T03:55:02.481Z,51.03
2018-03-03T03:57:29.977Z,51.43
2018-03-03T03:59:57.465Z,47.60
2018-03-03T04:02:24.947Z,51.30
2018-03-03T04:04:52.432Z,51.70
2018-03-03T04:07:19.923Z,51.87
2018-03-03T04:09:48.163Z,48.77
2018-03-03T04:12:15.648Z,51.23
2018-03-03T04:14:43.886Z,51.33
2018-03-03T04:17:11.367Z,50.40
2018-03-03T04:19:38.859Z,44.37
2018-03-03T04:22:06.360Z,45.03
2018-03-03T04:24:33.828Z,52.57
2018-03-03T04:27:01.336Z,47.40
2018-03-03T04:29:28.809Z,49.40
2018-03-03T04:31:56.307Z,50.13
2018-03-03T04:34:24.546Z,48.93
2018-03-03T04:36:52.025Z,46.30
2018-03-03T04:39:19.518Z,49.63
2018-03-03T04:41:46.992Z,51.27
2018-03-03T04:44:14.487Z,50.50
2018-03-03T04:46:41.956Z,45.27
2018-03-03T04:49:09.470Z,53.07
2018-03-03T04:51:36.924Z,49.50
2018-03-03T04:54:04.438Z,51.10
2018-03-03T04:56:32.671Z,48.47
2018-03-03T04:59:00.971Z,52.13
2018-03-03T05:01:28.436Z,48.43
2018-03-03T05:03:57.192Z,48.47
2018-03-03T05:06:42.466Z,51.50
2018-03-03T05:09:09.946Z,48.37
2018-03-03T05:11:37.414Z,48.47
2018-03-03T05:14:06.223Z,49.43
2018-03-03T05:19:58.337Z,51.87
2018-03-03T05:22:31.538Z,50.70
2018-03-03T05:25:05.560Z,51.43
2018-03-03T05:30:45.172Z,40.13
2018-03-03T05:33:18.372Z,53.80
2018-03-03T05:35:51.595Z,47.57
2018-03-03T05:38:25.653Z,50.83
2018-03-03T05:40:58.884Z,53.03
2018-03-03T05:43:32.776Z,51.87
2018-03-03T05:46:05.960Z,50.50
2018-03-03T05:51:38.876Z,50.37
2018-03-03T05:54:12.149Z,52.60
2018-03-03T05:59:47.800Z,53.17
2018-03-03T06:02:21.115Z,51.20
2018-03-03T06:05:09.399Z,52.83
2018-03-03T06:07:42.551Z,49.40
2018-03-03T06:10:14.542Z,50.33
2018-03-03T06:12:42.804Z,52.77
2018-03-03T06:15:11.079Z,50.40
2018-03-03T06:17:39.326Z,49.30
2018-03-03T06:20:06.833Z,47.70
2018-03-03T06:22:34.303Z,52.20
2018-03-03T06:25:01.801Z,51.67
2018-03-03T06:27:30.063Z,50.77
2018-03-03T06:29:58.419Z,50.17
2018-03-03T06:32:25.891Z,51.70
2018-03-03T06:34:53.377Z,46.00
2018-03-03T06:37:20.864Z,43.73
2018-03-03T06:39:48.346Z,52.53
2018-03-03T06:42:15.828Z,48.10
2018-03-03T06:44:43.309Z,54.87
2018-03-03T06:47:11.555Z,54.27
2018-03-03T06:49:39.047Z,48.77
2018-03-03T06:52:07.287Z,51.03
2018-03-03T06:54:34.771Z,47.27
2018-03-03T06:57:03.026Z,50.37
2018-03-03T06:59:30.509Z,49.97
2018-03-03T07:01:57.967Z,51.03
2018-03-03T07:04:26.207Z,52.10
2018-03-03T07:06:53.700Z,49.10
2018-03-03T07:09:22.034Z,45.90
2018-03-03T07:11:49.522Z,53.17
2018-03-03T07:17:15.465Z,44.20
2018-03-03T07:19:43.699Z,48.23
2018-03-03T07:22:11.194Z,53.17
2018-03-03T07:24:39.435Z,46.07
2018-03-03T07:27:06.916Z,50.37
2018-03-03T07:29:35.173Z,48.87
2018-03-03T07:32:02.697Z,40.90
2018-03-03T07:34:30.165Z,43.57
2018-03-03T07:36:57.651Z,46.57
2018-03-03T07:39:25.899Z,45.43
2018-03-03T07:41:53.403Z,36.57
2018-03-03T07:44:21.667Z,44.07
2018-03-03T07:46:49.145Z,44.33
2018-03-03T07:49:16.661Z,36.73
2018-03-03T07:51:45.032Z,46.80
2018-03-03T07:54:12.535Z,45.23
2018-03-03T07:56:50.846Z,44.27
2018-03-03T07:59:18.335Z,39.50
2018-03-03T08:01:45.804Z,47.43
2018-03-03T08:04:13.299Z,45.60
2018-03-03T08:06:41.564Z,46.83
2018-03-03T08:09:09.048Z,46.07
2018-03-03T08:11:36.539Z,39.80
2018-03-03T08:14:04.023Z,37.30
2018-03-03T08:16:31.489Z,48.20
2018-03-03T08:18:59.751Z,37.13
2018-03-03T08:21:27.287Z,39.43
2018-03-03T08:23:54.788Z,37.63
2018-03-03T08:26:23.033Z,46.03
2018-03-03T08:28:50.530Z,39.60
2018-03-03T08:31:18.031Z,47.27
2018-03-03T08:33:45.494Z,48.40
2018-03-03T08:36:12.985Z,39.77
2018-03-03T08:38:41.212Z,51.23
2018-03-03T08:41:08.704Z,39.10
2018-03-03T08:43:37.543Z,48.23
2018-03-03T08:46:05.036Z,41.03
2018-03-03T08:48:32.503Z,35.87
2018-03-03T08:51:00.006Z,44.97
2018-03-03T08:53:28.621Z,40.63
2018-03-03T08:55:56.136Z,40.40
2018-03-03T08:58:23.608Z,42.07
2018-03-03T09:00:51.093Z,42.47
2018-03-03T09:03:18.586Z,42.93
2018-03-03T09:05:46.847Z,36.13
2018-03-03T09:08:14.348Z,45.40
2018-03-03T09:10:41.836Z,46.53
2018-03-03T09:13:09.593Z,31.77
2018-03-03T09:15:37.070Z,44.27
2018-03-03T09:18:04.740Z,45.13
2018-03-03T09:20:33.089Z,40.33
2018-03-03T09:23:00.622Z,39.43
2018-03-03T09:25:28.164Z,46.70
2018-03-03T09:27:55.652Z,45.60
2018-03-03T09:30:23.164Z,47.80
2018-03-03T09:32:50.620Z,44.87
2018-03-03T09:35:18.122Z,44.00
2018-03-03T09:37:45.606Z,46.67
2018-03-03T09:40:13.079Z,44.60
2018-03-03T09:42:41.306Z,42.93
2018-03-03T09:45:08.819Z,43.03
2018-03-03T09:47:36.306Z,40.43
2018-03-03T09:50:03.806Z,44.00
2018-03-03T09:52:31.269Z,43.50
2018-03-03T09:54:59.530Z,46.23
2018-03-03T09:57:27.028Z,48.00
2018-03-03T09:59:54.502Z,42.87
2018-03-03T10:02:21.984Z,42.27
2018-03-03T10:04:49.471Z,38.70
2018-03-03T10:07:17.720Z,41.57
2018-03-03T10:09:45.206Z,47.03
2018-03-03T10:12:12.750Z,43.57
2018-03-03T10:14:41.048Z,35.03
2018-03-03T10:17:08.554Z,35.90
2018-03-03T10:19:36.034Z,42.40
2018-03-03T10:22:03.650Z,40.77
2018-03-03T10:24:31.130Z,41.40
2018-03-03T10:26:58.606Z,41.37
2018-03-03T10:29:26.141Z,33.23
2018-03-03T10:31:53.773Z,35.83
2018-03-03T10:34:21.279Z,41.60
2018-03-03T10:36:48.815Z,39.77
2018-03-03T10:39:16.295Z,39.00
2018-03-03T10:41:44.567Z,45.63
2018-03-03T10:44:12.034Z,37.30
2018-03-03T10:46:40.338Z,41.97
2018-03-03T10:49:07.802Z,37.80
2018-03-03T10:51:35.299Z,37.53
2018-03-03T10:54:02.888Z,41.27
2018-03-03T10:56:31.129Z,41.77
2018-03-03T10:58:58.631Z,42.00
2018-03-03T11:01:26.212Z,43.87
2018-03-03T11:03:53.696Z,40.40
2018-03-03T11:06:21.202Z,43.30
2018-03-03T11:08:48.691Z,41.47
2018-03-03T11:11:16.171Z,41.70
2018-03-03T11:13:43.702Z,40.23
2018-03-03T11:16:11.232Z,38.40
2018-03-03T11:18:38.722Z,34.57
2018-03-03T11:21:07.056Z,44.23
2018-03-03T11:23:34.527Z,44.27
2018-03-03T11:26:02.582Z,43.20
2018-03-03T11:28:30.818Z,40.50
2018-03-03T11:30:58.305Z,43.00
2018-03-03T11:33:26.559Z,39.13
2018-03-03T11:35:54.093Z,44.60
2018-03-03T11:38:21.565Z,44.80
2018-03-03T11:40:49.088Z,40.47
2018-03-03T11:43:16.567Z,42.67
2018-03-03T11:45:44.044Z,44.43
2018-03-03T11:48:11.599Z,43.33
2018-03-03T11:50:39.088Z,43.53
2018-03-03T11:53:06.566Z,40.40
2018-03-03T11:55:34.040Z,40.93
2018-03-03T11:58:01.582Z,39.67
2018-03-03T12:00:29.066Z,42.07
2018-03-03T12:02:57.310Z,39.20
2018-03-03T12:05:24.795Z,37.77
2018-03-03T12:07:52.287Z,41.90
2018-03-03T12:10:20.532Z,43.57
2018-03-03T12:12:48.014Z,40.20
2018-03-03T12:15:16.260Z,36.67
2018-03-03T12:17:43.775Z,40.63
2018-03-03T12:20:11.263Z,43.30
2018-03-03T12:22:38.747Z,39.43
2018-03-03T12:25:06.991Z,41.30
2018-03-03T12:27:34.480Z,40.07
2018-03-03T12:30:02.759Z,36.90
2018-03-03T12:32:31.819Z,42.43
2018-03-03T12:34:59.346Z,40.70
2018-03-03T12:37:26.865Z,40.53
2018-03-03T12:39:55.147Z,43.47
2018-03-03T12:42:23.391Z,40.93
2018-03-03T12:44:52.013Z,40.57
2018-03-03T12:47:19.501Z,41.60
2018-03-03T12:49:48.035Z,44.50
2018-03-03T12:52:16.317Z,40.43
2018-03-03T12:54:44.579Z,41.90
2018-03-03T12:57:12.842Z,38.13
2018-03-03T12:59:40.322Z,39.70
2018-03-03T13:02:08.592Z,39.17
2018-03-03T13:04:36.824Z,41.30
2018-03-03T13:07:04.317Z,44.87
2018-03-03T13:09:32.564Z,42.27
2018-03-03T13:12:00.255Z,35.43
2018-03-03T13:14:28.513Z,44.90
2018-03-03T13:16:55.978Z,43.80
2018-03-03T13:19:24.227Z,45.83
2018-03-03T13:21:51.746Z,41.33
2018-03-03T13:24:19.249Z,45.40
2018-03-03T13:26:46.754Z,42.80
2018-03-03T13:29:14.229Z,43.80
2018-03-03T13:31:41.720Z,42.07
2018-03-03T13:34:09.203Z,44.60
2018-03-03T13:36:38.255Z,44.57
2018-03-03T13:39:05.735Z,41.70
2018-03-03T13:41:33.277Z,41.53
2018-03-03T13:44:00.741Z,40.30
2018-03-03T13:46:28.234Z,45.40
2018-03-03T13:48:55.740Z,41.73
2018-03-03T13:51:24.112Z,42.07
2018-03-03T13:53:51.596Z,44.63
2018-03-03T13:56:19.712Z,41.73
2018-03-03T13:58:47.227Z,39.57
2018-03-03T14:01:14.692Z,40.30
2018-03-03T14:03:42.960Z,41.17
2018-03-03T14:06:11.420Z,45.50
2018-03-03T14:08:38.897Z,42.60
2018-03-03T14:11:07.174Z,40.60
2018-03-03T14:13:35.426Z,42.03
2018-03-03T14:16:02.958Z,39.30
2018-03-03T14:18:30.460Z,41.43
2018-03-03T14:20:58.745Z,39.97
2018-03-03T14:23:26.987Z,39.90
2018-03-03T14:25:54.472Z,40.77
2018-03-03T14:28:22.751Z,43.60
2018-03-03T14:30:51.032Z,44.30
2018-03-03T14:33:18.544Z,39.53
2018-03-03T14:35:46.170Z,38.10
2018-03-03T14:38:13.666Z,36.87
2018-03-03T14:40:41.174Z,42.83
2018-03-03T14:43:08.739Z,43.17
2018-03-03T14:45:36.258Z,45.60
2018-03-03T14:48:04.534Z,42.83
2018-03-03T14:50:32.786Z,42.30
2018-03-03T14:53:00.283Z,45.30
2018-03-03T14:55:27.756Z,38.57
2018-03-03T14:57:55.213Z,37.23
2018-03-03T15:00:23.094Z,42.13
2018-03-03T15:02:50.559Z,40.97
2018-03-03T15:05:18.052Z,40.53
2018-03-03T15:07:46.305Z,39.53
2018-03-03T15:10:13.806Z,43.53
2018-03-03T15:12:41.291Z,44.17
2018-03-03T15:15:08.756Z,37.20
2018-03-03T15:17:36.234Z,42.33
2018-03-03T15:20:03.707Z,38.03
2018-03-03T15:22:32.015Z,41.10
2018-03-03T15:24:59.468Z,41.47
2018-03-03T15:27:26.950Z,42.63
2018-03-03T15:29:54.486Z,37.97
2018-03-03T15:32:22.076Z,41.03
2018-03-03T15:47:54.591Z,30.30
2018-03-03T15:50:22.122Z,35.90
2018-03-03T15:52:50.375Z,37.23
2018-03-03T15:55:17.853Z,40.57
2018-03-03T15:57:46.079Z,39.97
2018-03-03T16:00:13.594Z,43.77
2018-03-03T16:02:41.087Z,39.97
2018-03-03T16:05:09.386Z,36.27
2018-03-03T16:07:36.915Z,39.60
2018-03-03T16:10:04.419Z,38.73
2018-03-03T16:12:31.898Z,36.93
2018-03-03T16:14:59.376Z,41.63
2018-03-03T16:17:26.945Z,41.00
2018-03-03T16:19:55.238Z,44.33
2018-03-03T16:22:22.788Z,42.43
2018-03-03T16:24:51.599Z,36.90
2018-03-03T16:27:19.254Z,35.20
2018-03-03T16:29:46.734Z,39.73
2018-03-03T16:32:15.739Z,42.43
2018-03-03T16:34:43.216Z,37.00
2018-03-03T16:37:10.679Z,38.30
2018-03-03T16:39:38.200Z,42.80
2018-03-03T16:42:07.242Z,32.83
2018-03-03T16:44:34.722Z,39.50
2018-03-03T16:47:02.208Z,35.30
2018-03-03T16:49:29.692Z,26.23
2018-03-03T16:51:57.178Z,29.67
2018-03-03T16:54:24.645Z,40.40
2018-03-03T16:56:52.168Z,31.43
2018-03-03T16:59:19.645Z,40.77
2018-03-03T17:01:47.114Z,37.33
2018-03-03T17:04:14.610Z,40.27
2018-03-03T17:06:42.092Z,40.13
2018-03-03T17:09:10.104Z,38.30
2018-03-03T17:11:37.828Z,33.90
2018-03-03T17:14:06.848Z,38.60
2018-03-03T17:16:34.947Z,38.27
2018-03-03T17:19:04.055Z,37.87
2018-03-03T17:21:31.831Z,36.13
2018-03-03T17:24:00.790Z,32.13
2018-03-03T17:26:29.034Z,38.17
2018-03-03T17:28:56.522Z,37.43
2018-03-03T17:31:24.748Z,37.90
2018-03-03T17:33:53.191Z,36.33
2018-03-03T17:36:20.667Z,37.17
2018-03-03T17:38:54.690Z,35.80
2018-03-03T17:41:22.157Z,40.33
2018-03-03T17:43:50.641Z,40.63
2018-03-03T17:46:18.117Z,41.97
2018-03-03T17:48:45.621Z,42.00
2018-03-03T17:51:13.943Z,40.67
2018-03-03T17:53:43.475Z,41.07
2018-03-03T17:56:12.169Z,41.70
2018-03-03T17:58:40.471Z,41.40
2018-03-03T18:01:07.958Z,38.10
2018-03-03T18:03:36.081Z,42.87
2018-03-03T18:06:03.561Z,36.70
2018-03-03T18:08:31.037Z,38.67
2018-03-03T18:11:00.460Z,41.73
2018-03-03T18:13:28.715Z,40.63
2018-03-03T18:15:56.200Z,39.87
2018-03-03T18:18:24.431Z,41.53
2018-03-03T18:20:52.375Z,38.43
2018-03-03T18:23:20.242Z,37.20
2018-03-03T18:25:48.092Z,38.43
2018-03-03T18:28:16.974Z,37.77
2018-03-03T18:30:44.471Z,32.67
2018-03-03T18:33:13.736Z,38.93
2018-03-03T18:35:41.199Z,40.53
2018-03-03T18:38:10.187Z,34.63
2018-03-03T18:40:38.688Z,34.90
2018-03-03T18:43:06.174Z,36.50
2018-03-03T18:45:35.647Z,34.80
2018-03-03T18:48:03.912Z,31.87
2018-03-03T18:50:31.382Z,36.70
2018-03-03T18:52:59.652Z,40.87
2018-03-03T18:55:27.127Z,28.70
2018-03-03T18:57:56.118Z,37.17
2018-03-03T19:00:23.949Z,31.37
2018-03-03T19:12:38.272Z,41.03
2018-03-03T19:15:05.929Z,35.87
2018-03-03T19:17:36.071Z,40.10
2018-03-03T19:20:03.543Z,44.60
2018-03-03T19:22:31.795Z,41.73
2018-03-03T19:24:59.310Z,43.57
2018-03-03T19:27:28.306Z,35.63
2018-03-03T19:29:55.791Z,41.97
2018-03-03T19:32:23.438Z,44.50
2018-03-03T19:34:51.301Z,43.83
2018-03-03T19:37:19.832Z,37.47
2018-03-03T19:39:49.624Z,30.00
2018-03-03T19:42:17.117Z,37.73
2018-03-03T19:44:44.607Z,36.20
2018-03-03T19:47:12.147Z,39.57
2018-03-03T19:49:39.613Z,32.13
2018-03-03T19:52:07.105Z,42.03
2018-03-03T19:54:35.571Z,44.63
2018-03-03T19:57:03.070Z,38.47
2018-03-03T19:59:31.320Z,32.57
2018-03-03T20:01:58.828Z,29.03
2018-03-03T20:04:26.443Z,29.43
2018-03-03T20:06:56.979Z,32.23
2018-03-03T20:09:25.968Z,31.80
2018-03-03T20:11:53.446Z,28.10
2018-03-03T20:14:22.201Z,32.43
2018-03-03T20:16:50.143Z,30.07
2018-03-03T20:19:17.683Z,38.23
2018-03-03T20:21:45.191Z,41.07
2018-03-03T20:24:13.445Z,38.13
2018-03-03T20:26:40.948Z,41.07
2018-03-03T20:29:08.483Z,41.47
2018-03-03T20:31:36.895Z,41.00
2018-03-03T20:34:05.579Z,37.10
2018-03-03T20:36:33.186Z,39.27
2018-03-03T20:41:55.190Z,37.70
2018-03-03T20:44:23.440Z,41.13
2018-03-03T20:46:50.983Z,44.50
2018-03-03T20:49:19.340Z,28.93
2018-03-03T20:51:46.830Z,39.13
2018-03-03T20:54:14.354Z,41.77
2018-03-03T20:56:41.843Z,42.27
2018-03-03T20:59:10.220Z,44.27
2018-03-03T21:01:37.690Z,43.63
2018-03-03T21:04:05.996Z,34.50
2018-03-03T21:06:33.492Z,46.67
2018-03-03T21:09:00.995Z,42.90
2018-03-03T21:11:31.919Z,38.23
2018-03-03T21:14:00.175Z,42.33
2018-03-03T21:16:27.690Z,37.77
2018-03-03T21:18:55.174Z,43.20
2018-03-03T21:21:22.658Z,43.43
2018-03-03T21:23:50.903Z,43.77
2018-03-03T21:26:18.391Z,41.23
2018-03-03T21:28:46.674Z,40.43
2018-03-03T21:31:14.983Z,41.73
2018-03-03T21:33:42.496Z,42.40
2018-03-03T21:36:10.793Z,46.13
2018-03-03T21:38:38.272Z,44.17
2018-03-03T21:41:05.760Z,40.63
2018-03-03T21:43:33.229Z,43.37
2018-03-03T21:46:00.719Z,43.50
2018-03-03T21:48:29.015Z,47.00
2018-03-03T21:50:56.502Z,45.70
2018-03-03T21:53:23.993Z,45.13
2018-03-03T21:55:52.262Z,48.00
2018-03-03T21:58:20.534Z,44.20
2018-03-03T22:00:48.955Z,45.37
2018-03-03T22:03:19.772Z,41.83
2018-03-03T22:05:48.212Z,40.43
2018-03-03T22:08:15.702Z,47.20
2018-03-03T22:10:43.963Z,45.33
2018-03-03T22:13:12.241Z,40.40
2018-03-03T22:15:41.192Z,38.83
2018-03-03T22:18:09.467Z,48.17
2018-03-03T22:20:37.322Z,46.50
2018-03-03T22:23:04.828Z,46.10
2018-03-03T22:25:33.096Z,48.50
2018-03-03T22:28:01.345Z,43.40
2018-03-03T22:30:28.836Z,46.10
2018-03-03T22:32:57.153Z,41.67
2018-03-03T22:35:24.633Z,37.37
2018-03-03T22:37:52.136Z,41.70
2018-03-03T22:40:19.615Z,45.43
2018-03-03T22:42:47.110Z,40.77
2018-03-03T22:45:15.380Z,44.33
2018-03-03T22:47:43.609Z,45.90
2018-03-03T22:50:11.153Z,42.53
2018-03-03T22:52:38.617Z,40.37
2018-03-03T22:55:06.774Z,43.30
2018-03-03T22:57:36.323Z,33.17
2018-03-03T23:00:04.457Z,42.60
2018-03-03T23:02:33.312Z,44.00
2018-03-03T23:05:00.827Z,46.47
2018-03-03T23:07:28.314Z,42.73
2018-03-03T23:09:55.810Z,37.83
2018-03-03T23:12:26.072Z,45.73
2018-03-03T23:14:53.558Z,45.27
2018-03-03T23:17:23.059Z,44.57
2018-03-03T23:19:50.553Z,40.60
2018-03-03T23:22:22.724Z,34.67
2018-03-03T23:24:50.210Z,41.53
2018-03-03T23:27:17.710Z,43.97
2018-03-03T23:29:45.958Z,44.80
2018-03-03T23:32:13.451Z,32.07
2018-03-03T23:34:41.684Z,42.60
2018-03-03T23:37:09.183Z,44.77
2018-03-03T23:39:36.664Z,47.50
2018-03-03T23:42:04.144Z,37.17
2018-03-03T23:44:31.619Z,41.90
2018-03-03T23:46:59.122Z,44.90
2018-03-03T23:49:26.584Z,46.77
2018-03-03T23:51:54.073Z,48.20
2018-03-03T23:54:21.578Z,34.53
2018-03-03T23:56:50.532Z,47.90
2018-03-03T23:59:18.016Z,35.13
